Goose Green, Vermont
Current Conditions -  °F | °C
As of 9:51 PM on Monday 22 Dec 2014 (Local Time) from KMPV Reporting Station
Light Snow Light Snow  
Wind Chill: 26°   Ceiling: 1400
Heat Index: 32°   Visibility: 5mi
Dew Point: 29°   Wind: 6mph
Humidity: 88%   Direction: 170°S
Pressure: 30.3"   Gusts: NA
Location:  44.0361°N, 72.2949°W
Report Text: KMPV 230251Z AUTO 17005KT 5SM -SN BR BKN014 OVC039 00/M02 A3030 RMK AO2 SLP278 P0000 60000 T00001017 58005
Loading
Personal Weather Stations






























Interactive Weather Map New forecast layout! Learn more

10-Day Weather Forecast

Advertisements
Track Severe Weather on mobile